sensor_id;sensor_type;location;lat;lon;timestamp;pressure;altitude;pressure_sealevel;temperature;humidity
10946;BME280;5525;42.648;23.368;2024-03-08T00:02:12;94737.44;;;6.43;100.00
10946;BME280;5525;42.648;23.368;2024-03-08T00:04:40;94737.06;;;6.50;100.00
10946;BME280;5525;42.648;23.368;2024-03-08T00:07:07;94737.97;;;6.59;100.00
10946;BME280;5525;42.648;23.368;2024-03-08T00:09:34;94732.69;;;6.40;100.00
10946;BME280;5525;42.648;23.368;2024-03-08T00:12:02;94726.50;;;6.53;100.00
10946;BME280;5525;42.648;23.368;2024-03-08T00:14:28;94736.09;;;6.73;100.00
10946;BME280;5525;42.648;23.368;2024-03-08T00:16:55;94730.72;;;6.73;100.00
10946;BME280;5525;42.648;23.368;2024-03-08T00:19:22;94723.56;;;6.55;100.00
10946;BME280;5525;42.648;23.368;2024-03-08T00:21:50;94735.66;;;6.66;100.00
10946;BME280;5525;42.648;23.368;2024-03-08T00:24:17;94737.88;;;6.64;100.00
10946;BME280;5525;42.648;23.368;2024-03-08T00:26:44;94727.41;;;6.49;100.00
10946;BME280;5525;42.648;23.368;2024-03-08T00:29:10;94726.41;;;6.45;100.00
10946;BME280;5525;42.648;23.368;2024-03-08T00:31:38;94721.38;;;6.57;100.00
10946;BME280;5525;42.648;23.368;2024-03-08T00:34:05;94727.03;;;6.69;100.00
10946;BME280;5525;42.648;23.368;2024-03-08T00:36:32;94723.56;;;6.68;100.00
10946;BME280;5525;42.648;23.368;2024-03-08T00:39:00;94719.88;;;6.64;100.00
10946;BME280;5525;42.648;23.368;2024-03-08T00:41:28;94712.84;;;6.55;100.00
10946;BME280;5525;42.648;23.368;2024-03-08T00:43:55;94717.78;;;6.61;100.00
10946;BME280;5525;42.648;23.368;2024-03-08T00:46:22;94709.94;;;6.65;100.00
10946;BME280;5525;42.648;23.368;2024-03-08T00:48:49;94714.72;;;6.54;100.00
10946;BME280;5525;42.648;23.368;2024-03-08T00:51:16;94712.81;;;6.41;100.00
10946;BME280;5525;42.648;23.368;2024-03-08T00:53:43;94701.66;;;6.21;100.00
10946;BME280;5525;42.648;23.368;2024-03-08T00:56:11;94706.75;;;6.36;100.00
10946;BME280;5525;42.648;23.368;2024-03-08T00:58:38;94703.19;;;6.40;100.00
10946;BME280;5525;42.648;23.368;2024-03-08T01:01:05;94704.44;;;6.29;100.00
10946;BME280;5525;42.648;23.368;2024-03-08T01:03:32;94704.13;;;6.17;100.00
10946;BME280;5525;42.648;23.368;2024-03-08T01:05:59;94702.50;;;6.35;100.00
10946;BME280;5525;42.648;23.368;2024-03-08T01:08:27;94700.41;;;6.32;100.00
10946;BME280;5525;42.648;23.368;2024-03-08T01:10:54;94689.84;;;6.22;100.00
10946;BME280;5525;42.648;23.368;2024-03-08T01:13:22;94690.28;;;5.97;100.00
10946;BME280;5525;42.648;23.368;2024-03-08T01:15:49;94690.78;;;5.99;100.00
10946;BME280;5525;42.648;23.368;2024-03-08T01:18:16;94695.25;;;6.03;100.00
10946;BME280;5525;42.648;23.368;2024-03-08T01:20:42;94692.47;;;5.95;100.00
10946;BME280;5525;42.648;23.368;2024-03-08T01:23:09;94695.25;;;6.03;100.00
10946;BME280;5525;42.648;23.368;2024-03-08T01:25:36;94689.19;;;5.84;100.00
10946;BME280;5525;42.648;23.368;2024-03-08T01:28:04;94688.13;;;5.80;100.00
10946;BME280;5525;42.648;23.368;2024-03-08T01:30:32;94679.81;;;5.82;100.00
10946;BME280;5525;42.648;23.368;2024-03-08T01:33:00;94684.91;;;5.65;100.00
10946;BME280;5525;42.648;23.368;2024-03-08T01:35:27;94685.81;;;5.74;100.00
10946;BME280;5525;42.648;23.368;2024-03-08T01:37:54;94684.63;;;5.80;100.00
10946;BME280;5525;42.648;23.368;2024-03-08T01:40:21;94688.88;;;5.86;100.00
10946;BME280;5525;42.648;23.368;2024-03-08T01:42:48;94680.00;;;6.04;100.00
10946;BME280;5525;42.648;23.368;2024-03-08T01:45:15;94681.84;;;5.90;100.00
10946;BME280;5525;42.648;23.368;2024-03-08T01:47:44;94685.69;;;5.84;100.00
10946;BME280;5525;42.648;23.368;2024-03-08T01:50:13;94687.28;;;5.85;100.00
10946;BME280;5525;42.648;23.368;2024-03-08T01:52:41;94690.75;;;5.85;100.00
10946;BME280;5525;42.648;23.368;2024-03-08T01:55:08;94685.47;;;5.62;100.00
10946;BME280;5525;42.648;23.368;2024-03-08T01:57:36;94681.34;;;5.69;100.00
10946;BME280;5525;42.648;23.368;2024-03-08T02:00:04;94674.50;;;5.77;100.00
10946;BME280;5525;42.648;23.368;2024-03-08T02:02:32;94679.56;;;5.78;100.00
10946;BME280;5525;42.648;23.368;2024-03-08T02:05:01;94675.28;;;5.82;100.00
10946;BME280;5525;42.648;23.368;2024-03-08T02:07:28;94675.19;;;5.87;100.00
10946;BME280;5525;42.648;23.368;2024-03-08T02:09:55;94683.03;;;5.97;100.00
10946;BME280;5525;42.648;23.368;2024-03-08T02:12:22;94679.63;;;6.10;100.00
10946;BME280;5525;42.648;23.368;2024-03-08T02:14:48;94672.53;;;6.01;100.00
10946;BME280;5525;42.648;23.368;2024-03-08T02:17:15;94676.72;;;6.07;100.00
10946;BME280;5525;42.648;23.368;2024-03-08T02:19:42;94680.31;;;6.16;100.00
10946;BME280;5525;42.648;23.368;2024-03-08T02:22:10;94681.47;;;5.96;100.00
10946;BME280;5525;42.648;23.368;2024-03-08T02:24:37;94676.78;;;5.88;100.00
10946;BME280;5525;42.648;23.368;2024-03-08T02:27:04;94679.44;;;5.88;100.00
10946;BME280;5525;42.648;23.368;2024-03-08T02:29:33;94684.16;;;5.96;100.00
10946;BME280;5525;42.648;23.368;2024-03-08T02:32:00;94683.56;;;5.81;100.00
10946;BME280;5525;42.648;23.368;2024-03-08T02:34:28;94678.16;;;5.86;100.00
10946;BME280;5525;42.648;23.368;2024-03-08T02:36:56;94695.03;;;5.68;100.00
10946;BME280;5525;42.648;23.368;2024-03-08T02:39:25;94691.78;;;5.52;100.00
10946;BME280;5525;42.648;23.368;2024-03-08T02:41:53;94693.97;;;5.50;100.00
10946;BME280;5525;42.648;23.368;2024-03-08T02:44:19;94695.78;;;5.36;100.00
10946;BME280;5525;42.648;23.368;2024-03-08T02:46:47;94699.47;;;5.59;100.00
10946;BME280;5525;42.648;23.368;2024-03-08T02:49:13;94698.56;;;5.63;100.00
10946;BME280;5525;42.648;23.368;2024-03-08T02:51:41;94694.75;;;5.51;100.00
10946;BME280;5525;42.648;23.368;2024-03-08T02:54:08;94700.22;;;5.27;100.00
10946;BME280;5525;42.648;23.368;2024-03-08T02:56:37;94687.31;;;5.29;100.00
10946;BME280;5525;42.648;23.368;2024-03-08T02:59:03;94695.63;;;5.46;100.00
10946;BME280;5525;42.648;23.368;2024-03-08T03:01:30;94701.66;;;5.19;100.00
10946;BME280;5525;42.648;23.368;2024-03-08T03:03:58;94690.91;;;5.57;100.00
10946;BME280;5525;42.648;23.368;2024-03-08T03:06:24;94698.75;;;5.35;100.00
10946;BME280;5525;42.648;23.368;2024-03-08T03:08:51;94700.84;;;5.19;100.00
10946;BME280;5525;42.648;23.368;2024-03-08T03:11:19;94704.75;;;5.64;100.00
10946;BME280;5525;42.648;23.368;2024-03-08T03:13:47;94704.47;;;5.47;100.00
10946;BME280;5525;42.648;23.368;2024-03-08T03:16:17;94704.16;;;5.48;100.00
10946;BME280;5525;42.648;23.368;2024-03-08T03:18:45;94695.44;;;5.24;100.00
10946;BME280;5525;42.648;23.368;2024-03-08T03:21:12;94703.53;;;5.38;100.00
10946;BME280;5525;42.648;23.368;2024-03-08T03:23:38;94708.06;;;5.00;100.00
10946;BME280;5525;42.648;23.368;2024-03-08T03:26:07;94697.53;;;5.27;100.00
10946;BME280;5525;42.648;23.368;2024-03-08T03:28:37;94705.03;;;5.25;100.00
10946;BME280;5525;42.648;23.368;2024-03-08T03:31:06;94706.72;;;5.40;100.00
10946;BME280;5525;42.648;23.368;2024-03-08T03:33:33;94712.91;;;5.54;100.00
10946;BME280;5525;42.648;23.368;2024-03-08T03:36:02;94716.41;;;5.54;100.00
10946;BME280;5525;42.648;23.368;2024-03-08T03:38:30;94722.63;;;5.12;100.00
10946;BME280;5525;42.648;23.368;2024-03-08T03:40:57;94722.25;;;5.00;100.00
10946;BME280;5525;42.648;23.368;2024-03-08T03:43:29;94719.53;;;5.24;100.00
10946;BME280;5525;42.648;23.368;2024-03-08T03:45:56;94725.94;;;5.23;100.00
10946;BME280;5525;42.648;23.368;2024-03-08T03:48:25;94723.22;;;5.28;100.00
10946;BME280;5525;42.648;23.368;2024-03-08T03:50:51;94729.84;;;5.12;100.00
10946;BME280;5525;42.648;23.368;2024-03-08T03:53:18;94725.81;;;5.14;100.00
10946;BME280;5525;42.648;23.368;2024-03-08T03:55:45;94731.38;;;5.18;100.00
10946;BME280;5525;42.648;23.368;2024-03-08T03:58:12;94737.69;;;4.85;100.00
10946;BME280;5525;42.648;23.368;2024-03-08T04:00:39;94727.66;;;4.95;100.00
10946;BME280;5525;42.648;23.368;2024-03-08T04:03:06;94727.88;;;4.99;100.00
10946;BME280;5525;42.648;23.368;2024-03-08T04:05:35;94730.88;;;5.16;100.00
10946;BME280;5525;42.648;23.368;2024-03-08T04:08:02;94735.50;;;5.29;100.00
10946;BME280;5525;42.648;23.368;2024-03-08T04:10:29;94737.47;;;5.42;100.00
10946;BME280;5525;42.648;23.368;2024-03-08T04:12:55;94739.31;;;5.04;100.00
10946;BME280;5525;42.648;23.368;2024-03-08T04:15:23;94736.81;;;5.13;100.00
10946;BME280;5525;42.648;23.368;2024-03-08T04:17:50;94746.00;;;5.26;100.00
10946;BME280;5525;42.648;23.368;2024-03-08T04:20:16;94739.41;;;5.18;100.00
10946;BME280;5525;42.648;23.368;2024-03-08T04:22:44;94744.28;;;5.35;100.00
10946;BME280;5525;42.648;23.368;2024-03-08T04:25:12;94749.28;;;4.99;100.00
10946;BME280;5525;42.648;23.368;2024-03-08T04:27:39;94755.03;;;5.11;100.00
10946;BME280;5525;42.648;23.368;2024-03-08T04:30:08;94747.75;;;4.93;100.00
10946;BME280;5525;42.648;23.368;2024-03-08T04:32:35;94756.22;;;5.00;100.00
10946;BME280;5525;42.648;23.368;2024-03-08T04:35:02;94753.75;;;4.85;100.00
10946;BME280;5525;42.648;23.368;2024-03-08T04:37:29;94766.94;;;5.00;100.00
10946;BME280;5525;42.648;23.368;2024-03-08T04:39:57;94767.19;;;5.22;100.00
10946;BME280;5525;42.648;23.368;2024-03-08T04:42:24;94763.31;;;5.33;100.00
10946;BME280;5525;42.648;23.368;2024-03-08T04:44:52;94766.28;;;5.50;100.00
10946;BME280;5525;42.648;23.368;2024-03-08T04:47:19;94767.56;;;5.53;100.00
10946;BME280;5525;42.648;23.368;2024-03-08T04:49:46;94769.16;;;5.35;100.00
10946;BME280;5525;42.648;23.368;2024-03-08T04:52:13;94768.50;;;5.43;100.00
10946;BME280;5525;42.648;23.368;2024-03-08T04:54:40;94765.81;;;5.62;100.00
10946;BME280;5525;42.648;23.368;2024-03-08T04:57:08;94765.22;;;5.28;100.00
10946;BME280;5525;42.648;23.368;2024-03-08T04:59:35;94768.00;;;5.22;100.00
10946;BME280;5525;42.648;23.368;2024-03-08T05:02:02;94766.75;;;5.15;100.00
10946;BME280;5525;42.648;23.368;2024-03-08T05:04:29;94776.81;;;5.23;100.00
10946;BME280;5525;42.648;23.368;2024-03-08T05:06:56;94789.56;;;5.07;100.00
10946;BME280;5525;42.648;23.368;2024-03-08T05:09:23;94784.78;;;5.28;100.00
10946;BME280;5525;42.648;23.368;2024-03-08T05:11:49;94777.47;;;5.52;100.00
10946;BME280;5525;42.648;23.368;2024-03-08T05:14:18;94786.75;;;5.41;100.00
10946;BME280;5525;42.648;23.368;2024-03-08T05:16:46;94788.13;;;5.57;100.00
10946;BME280;5525;42.648;23.368;2024-03-08T05:19:14;94787.59;;;5.55;100.00
10946;BME280;5525;42.648;23.368;2024-03-08T05:21:42;94786.31;;;5.34;100.00
10946;BME280;5525;42.648;23.368;2024-03-08T05:24:09;94792.31;;;5.45;100.00
10946;BME280;5525;42.648;23.368;2024-03-08T05:26:36;94796.88;;;5.44;100.00
10946;BME280;5525;42.648;23.368;2024-03-08T05:29:03;94799.25;;;5.27;100.00
10946;BME280;5525;42.648;23.368;2024-03-08T05:31:38;94809.22;;;5.21;100.00
10946;BME280;5525;42.648;23.368;2024-03-08T05:34:05;94814.44;;;5.32;100.00
10946;BME280;5525;42.648;23.368;2024-03-08T05:36:35;94815.63;;;5.02;100.00
10946;BME280;5525;42.648;23.368;2024-03-08T05:39:02;94818.38;;;5.15;100.00
10946;BME280;5525;42.648;23.368;2024-03-08T05:41:31;94818.56;;;5.00;100.00
10946;BME280;5525;42.648;23.368;2024-03-08T05:43:58;94828.13;;;5.30;100.00
10946;BME280;5525;42.648;23.368;2024-03-08T05:46:25;94830.59;;;5.45;100.00
10946;BME280;5525;42.648;23.368;2024-03-08T05:48:53;94830.41;;;5.60;100.00
10946;BME280;5525;42.648;23.368;2024-03-08T05:51:20;94834.47;;;5.58;100.00
10946;BME280;5525;42.648;23.368;2024-03-08T05:53:47;94840.75;;;5.48;100.00
10946;BME280;5525;42.648;23.368;2024-03-08T05:56:14;94837.53;;;5.46;100.00
10946;BME280;5525;42.648;23.368;2024-03-08T05:58:41;94841.38;;;5.40;100.00
10946;BME280;5525;42.648;23.368;2024-03-08T06:01:08;94845.72;;;5.36;100.00
10946;BME280;5525;42.648;23.368;2024-03-08T06:03:38;94850.13;;;5.27;100.00
10946;BME280;5525;42.648;23.368;2024-03-08T06:06:11;94857.50;;;5.35;100.00
10946;BME280;5525;42.648;23.368;2024-03-08T06:08:38;94851.84;;;5.37;100.00
10946;BME280;5525;42.648;23.368;2024-03-08T06:11:05;94859.88;;;5.37;100.00
10946;BME280;5525;42.648;23.368;2024-03-08T06:13:32;94856.66;;;5.40;100.00
10946;BME280;5525;42.648;23.368;2024-03-08T06:15:59;94862.97;;;5.49;100.00
10946;BME280;5525;42.648;23.368;2024-03-08T06:18:29;94869.91;;;5.50;100.00
10946;BME280;5525;42.648;23.368;2024-03-08T06:20:57;94866.94;;;5.51;100.00
10946;BME280;5525;42.648;23.368;2024-03-08T06:23:26;94866.72;;;5.48;100.00
10946;BME280;5525;42.648;23.368;2024-03-08T06:25:53;94870.34;;;5.57;100.00
10946;BME280;5525;42.648;23.368;2024-03-08T06:28:19;94878.09;;;5.58;100.00
10946;BME280;5525;42.648;23.368;2024-03-08T06:30:46;94878.63;;;5.79;100.00
10946;BME280;5525;42.648;23.368;2024-03-08T06:33:13;94877.50;;;5.85;100.00
10946;BME280;5525;42.648;23.368;2024-03-08T06:35:41;94883.47;;;5.77;100.00
10946;BME280;5525;42.648;23.368;2024-03-08T06:38:08;94876.75;;;5.79;100.00
10946;BME280;5525;42.648;23.368;2024-03-08T06:40:36;94875.94;;;5.84;100.00
10946;BME280;5525;42.648;23.368;2024-03-08T06:43:03;94879.56;;;5.93;100.00
10946;BME280;5525;42.648;23.368;2024-03-08T06:45:31;94885.03;;;6.01;100.00
10946;BME280;5525;42.648;23.368;2024-03-08T06:47:58;94878.09;;;6.00;100.00
10946;BME280;5525;42.648;23.368;2024-03-08T06:50:24;94882.47;;;6.15;100.00
10946;BME280;5525;42.648;23.368;2024-03-08T06:52:51;94881.28;;;6.21;100.00
10946;BME280;5525;42.648;23.368;2024-03-08T06:55:19;94885.84;;;6.39;100.00
10946;BME280;5525;42.648;23.368;2024-03-08T06:57:47;94893.00;;;6.43;100.00
10946;BME280;5525;42.648;23.368;2024-03-08T07:00:14;94886.78;;;6.61;100.00
10946;BME280;5525;42.648;23.368;2024-03-08T07:02:43;94887.41;;;6.72;100.00
10946;BME280;5525;42.648;23.368;2024-03-08T07:05:11;94886.66;;;6.71;100.00
10946;BME280;5525;42.648;23.368;2024-03-08T07:07:38;94882.56;;;6.74;100.00
10946;BME280;5525;42.648;23.368;2024-03-08T07:10:07;94883.78;;;6.81;100.00
10946;BME280;5525;42.648;23.368;2024-03-08T07:12:36;94890.50;;;6.98;100.00
10946;BME280;5525;42.648;23.368;2024-03-08T07:15:05;94887.47;;;6.85;100.00
10946;BME280;5525;42.648;23.368;2024-03-08T07:17:33;94888.84;;;6.83;100.00
10946;BME280;5525;42.648;23.368;2024-03-08T07:20:00;94883.50;;;6.97;100.00
10946;BME280;5525;42.648;23.368;2024-03-08T07:22:32;94888.19;;;7.05;100.00
10946;BME280;5525;42.648;23.368;2024-03-08T07:24:59;94876.47;;;7.14;100.00
10946;BME280;5525;42.648;23.368;2024-03-08T07:27:45;94880.28;;;7.27;100.00
10946;BME280;5525;42.648;23.368;2024-03-08T07:30:14;94883.16;;;7.30;100.00
10946;BME280;5525;42.648;23.368;2024-03-08T07:33:02;94884.97;;;7.48;100.00
10946;BME280;5525;42.648;23.368;2024-03-08T07:35:28;94887.34;;;7.50;100.00
10946;BME280;5525;42.648;23.368;2024-03-08T07:37:56;94889.44;;;7.66;100.00
10946;BME280;5525;42.648;23.368;2024-03-08T07:40:25;94893.13;;;7.70;100.00
10946;BME280;5525;42.648;23.368;2024-03-08T07:42:52;94892.13;;;7.53;100.00
10946;BME280;5525;42.648;23.368;2024-03-08T07:45:20;94889.94;;;7.68;100.00
10946;BME280;5525;42.648;23.368;2024-03-08T07:47:47;94899.59;;;7.42;100.00
10946;BME280;5525;42.648;23.368;2024-03-08T07:50:15;94888.84;;;7.56;100.00
10946;BME280;5525;42.648;23.368;2024-03-08T07:52:42;94892.91;;;7.40;100.00
10946;BME280;5525;42.648;23.368;2024-03-08T07:55:09;94896.91;;;7.42;100.00
10946;BME280;5525;42.648;23.368;2024-03-08T07:57:36;94890.84;;;7.50;100.00
10946;BME280;5525;42.648;23.368;2024-03-08T08:00:05;94898.97;;;7.99;100.00
10946;BME280;5525;42.648;23.368;2024-03-08T08:02:35;94903.56;;;7.72;100.00
10946;BME280;5525;42.648;23.368;2024-03-08T08:05:02;94893.44;;;8.53;100.00
10946;BME280;5525;42.648;23.368;2024-03-08T08:07:29;94888.72;;;8.37;100.00
10946;BME280;5525;42.648;23.368;2024-03-08T08:09:56;94897.59;;;8.82;100.00
10946;BME280;5525;42.648;23.368;2024-03-08T08:12:22;94896.78;;;9.03;100.00
10946;BME280;5525;42.648;23.368;2024-03-08T08:14:49;94893.56;;;8.48;100.00
10946;BME280;5525;42.648;23.368;2024-03-08T08:17:16;94892.75;;;8.92;100.00
10946;BME280;5525;42.648;23.368;2024-03-08T08:19:45;94885.63;;;9.18;100.00
10946;BME280;5525;42.648;23.368;2024-03-08T08:22:11;94885.72;;;9.83;100.00
10946;BME280;5525;42.648;23.368;2024-03-08T08:24:38;94891.28;;;9.86;100.00
10946;BME280;5525;42.648;23.368;2024-03-08T08:27:05;94885.13;;;9.94;100.00
10946;BME280;5525;42.648;23.368;2024-03-08T08:29:32;94886.44;;;9.58;100.00
10946;BME280;5525;42.648;23.368;2024-03-08T08:32:00;94886.03;;;8.81;100.00
10946;BME280;5525;42.648;23.368;2024-03-08T08:34:27;94890.16;;;8.21;100.00
10946;BME280;5525;42.648;23.368;2024-03-08T08:36:56;94894.59;;;8.83;100.00
10946;BME280;5525;42.648;23.368;2024-03-08T08:39:23;94901.34;;;9.25;100.00
10946;BME280;5525;42.648;23.368;2024-03-08T08:41:51;94892.09;;;9.48;100.00
10946;BME280;5525;42.648;23.368;2024-03-08T08:44:18;94886.53;;;9.92;100.00
10946;BME280;5525;42.648;23.368;2024-03-08T08:46:44;94889.81;;;10.54;100.00
10946;BME280;5525;42.648;23.368;2024-03-08T08:49:11;94886.31;;;10.96;100.00
10946;BME280;5525;42.648;23.368;2024-03-08T08:51:40;94874.81;;;11.62;100.00
10946;BME280;5525;42.648;23.368;2024-03-08T08:54:08;94881.97;;;12.25;100.00
10946;BME280;5525;42.648;23.368;2024-03-08T08:56:35;94877.41;;;12.17;100.00
10946;BME280;5525;42.648;23.368;2024-03-08T08:59:02;94879.31;;;11.49;100.00
10946;BME280;5525;42.648;23.368;2024-03-08T09:01:30;94872.50;;;11.43;100.00
10946;BME280;5525;42.648;23.368;2024-03-08T09:03:56;94885.56;;;14.24;100.00
10946;BME280;5525;42.648;23.368;2024-03-08T09:06:23;94866.13;;;16.22;82.86
10946;BME280;5525;42.648;23.368;2024-03-08T09:08:50;94884.03;;;13.10;78.74
10946;BME280;5525;42.648;23.368;2024-03-08T09:11:19;94879.59;;;11.65;100.00
10946;BME280;5525;42.648;23.368;2024-03-08T09:13:46;94882.59;;;12.01;100.00
10946;BME280;5525;42.648;23.368;2024-03-08T09:16:14;94883.06;;;15.38;83.25
10946;BME280;5525;42.648;23.368;2024-03-08T09:18:41;94874.97;;;20.71;60.91
10946;BME280;5525;42.648;23.368;2024-03-08T09:21:08;94881.69;;;21.59;48.39
10946;BME280;5525;42.648;23.368;2024-03-08T09:23:35;94879.03;;;18.38;52.56
10946;BME280;5525;42.648;23.368;2024-03-08T09:26:02;94883.28;;;19.87;48.56
10946;BME280;5525;42.648;23.368;2024-03-08T09:28:30;94893.09;;;13.71;66.94
10946;BME280;5525;42.648;23.368;2024-03-08T09:30:57;94887.25;;;11.63;86.44
10946;BME280;5525;42.648;23.368;2024-03-08T09:33:26;94878.56;;;11.86;93.26
10946;BME280;5525;42.648;23.368;2024-03-08T09:35:54;94881.84;;;10.83;100.00
10946;BME280;5525;42.648;23.368;2024-03-08T09:38:23;94876.56;;;11.20;100.00
10946;BME280;5525;42.648;23.368;2024-03-08T09:40:50;94883.66;;;12.38;93.05
10946;BME280;5525;42.648;23.368;2024-03-08T09:43:18;94877.72;;;14.86;81.69
10946;BME280;5525;42.648;23.368;2024-03-08T09:45:49;94873.63;;;19.64;63.71
10946;BME280;5525;42.648;23.368;2024-03-08T09:48:17;94882.25;;;22.21;46.56
10946;BME280;5525;42.648;23.368;2024-03-08T09:50:46;94882.19;;;21.83;44.17
10946;BME280;5525;42.648;23.368;2024-03-08T09:53:13;94889.28;;;23.03;39.18
10946;BME280;5525;42.648;23.368;2024-03-08T09:55:40;94884.75;;;21.33;40.71
10946;BME280;5525;42.648;23.368;2024-03-08T09:58:11;94884.41;;;17.67;48.83
10946;BME280;5525;42.648;23.368;2024-03-08T10:01:03;94892.66;;;15.48;58.59
10946;BME280;5525;42.648;23.368;2024-03-08T10:03:31;94887.06;;;13.53;70.84
10946;BME280;5525;42.648;23.368;2024-03-08T10:05:59;94877.19;;;12.71;81.77
10946;BME280;5525;42.648;23.368;2024-03-08T10:08:26;94885.38;;;12.63;87.89
10946;BME280;5525;42.648;23.368;2024-03-08T10:10:54;94895.06;;;12.43;84.79
10946;BME280;5525;42.648;23.368;2024-03-08T10:13:24;94883.16;;;11.86;90.61
10946;BME280;5525;42.648;23.368;2024-03-08T10:15:52;94879.78;;;12.18;92.61
10946;BME280;5525;42.648;23.368;2024-03-08T10:18:21;94885.44;;;12.54;89.88
10946;BME280;5525;42.648;23.368;2024-03-08T10:21:01;94878.75;;;16.61;69.38
10946;BME280;5525;42.648;23.368;2024-03-08T10:23:29;94885.41;;;20.04;50.48
10946;BME280;5525;42.648;23.368;2024-03-08T10:25:56;94885.69;;;17.96;50.86
10946;BME280;5525;42.648;23.368;2024-03-08T10:28:24;94881.63;;;16.03;58.13
10946;BME280;5525;42.648;23.368;2024-03-08T10:30:51;94887.69;;;14.94;64.09
10946;BME280;5525;42.648;23.368;2024-03-08T10:33:18;94877.63;;;14.31;69.19
10946;BME280;5525;42.648;23.368;2024-03-08T10:35:46;94873.63;;;14.41;71.07
10946;BME280;5525;42.648;23.368;2024-03-08T10:38:16;94873.88;;;13.88;73.19
10946;BME280;5525;42.648;23.368;2024-03-08T10:40:46;94870.03;;;12.46;81.95
10946;BME280;5525;42.648;23.368;2024-03-08T10:43:23;94871.09;;;13.39;76.35
10946;BME280;5525;42.648;23.368;2024-03-08T10:46:01;94864.69;;;12.17;83.35
10946;BME280;5525;42.648;23.368;2024-03-08T10:48:32;94852.94;;;11.38;94.01
10946;BME280;5525;42.648;23.368;2024-03-08T10:51:04;94867.69;;;11.57;90.65
10946;BME280;5525;42.648;23.368;2024-03-08T10:53:34;94857.47;;;12.01;88.78
10946;BME280;5525;42.648;23.368;2024-03-08T10:56:02;94862.47;;;16.15;64.84
10946;BME280;5525;42.648;23.368;2024-03-08T10:58:29;94851.06;;;18.26;56.05
10946;BME280;5525;42.648;23.368;2024-03-08T11:00:57;94855.72;;;16.78;55.78
10946;BME280;5525;42.648;23.368;2024-03-08T11:03:47;94855.22;;;14.74;64.76
10946;BME280;5525;42.648;23.368;2024-03-08T11:06:31;94852.50;;;13.98;66.39
10946;BME280;5525;42.648;23.368;2024-03-08T11:09:10;94846.50;;;13.00;73.13
10946;BME280;5525;42.648;23.368;2024-03-08T11:11:42;94846.78;;;12.66;79.88
10946;BME280;5525;42.648;23.368;2024-03-08T11:14:42;94839.06;;;11.85;88.05
10946;BME280;5525;42.648;23.368;2024-03-08T11:17:10;94838.41;;;12.38;88.08
10946;BME280;5525;42.648;23.368;2024-03-08T11:19:37;94836.91;;;11.79;86.92
10946;BME280;5525;42.648;23.368;2024-03-08T11:22:20;94835.47;;;11.44;89.77
10946;BME280;5525;42.648;23.368;2024-03-08T11:24:48;94830.91;;;11.65;91.07
10946;BME280;5525;42.648;23.368;2024-03-08T11:27:15;94841.63;;;10.98;96.54
10946;BME280;5525;42.648;23.368;2024-03-08T11:29:42;94833.72;;;12.47;94.73
10946;BME280;5525;42.648;23.368;2024-03-08T11:32:10;94826.75;;;15.11;73.28
10946;BME280;5525;42.648;23.368;2024-03-08T11:34:41;94822.72;;;18.64;58.64
10946;BME280;5525;42.648;23.368;2024-03-08T11:37:14;94831.44;;;17.49;51.60
10946;BME280;5525;42.648;23.368;2024-03-08T11:39:46;94819.09;;;18.04;52.91
10946;BME280;5525;42.648;23.368;2024-03-08T11:42:14;94820.13;;;18.44;50.22
10946;BME280;5525;42.648;23.368;2024-03-08T11:44:42;94823.19;;;19.68;48.94
10946;BME280;5525;42.648;23.368;2024-03-08T11:47:10;94826.66;;;21.35;41.59
10946;BME280;5525;42.648;23.368;2024-03-08T11:49:37;94825.81;;;19.98;43.78
10946;BME280;5525;42.648;23.368;2024-03-08T11:52:04;94828.38;;;17.99;46.56
10946;BME280;5525;42.648;23.368;2024-03-08T11:54:32;94821.91;;;15.79;53.06
10946;BME280;5525;42.648;23.368;2024-03-08T11:57:01;94811.72;;;15.91;54.40
10946;BME280;5525;42.648;23.368;2024-03-08T11:59:28;94818.75;;;18.87;49.67
10946;BME280;5525;42.648;23.368;2024-03-08T12:02:01;94817.84;;;20.94;42.62
10946;BME280;5525;42.648;23.368;2024-03-08T12:04:29;94814.50;;;20.06;42.21
10946;BME280;5525;42.648;23.368;2024-03-08T12:06:59;94818.72;;;18.54;45.35
10946;BME280;5525;42.648;23.368;2024-03-08T12:09:27;94814.25;;;17.71;47.65
10946;BME280;5525;42.648;23.368;2024-03-08T12:11:58;94814.47;;;16.60;50.34
10946;BME280;5525;42.648;23.368;2024-03-08T12:14:25;94820.38;;;14.00;58.94
10946;BME280;5525;42.648;23.368;2024-03-08T12:16:52;94808.34;;;12.84;68.11
10946;BME280;5525;42.648;23.368;2024-03-08T12:19:18;94816.44;;;13.49;69.08
10946;BME280;5525;42.648;23.368;2024-03-08T12:21:45;94812.41;;;14.98;63.50
10946;BME280;5525;42.648;23.368;2024-03-08T12:24:16;94810.47;;;17.76;52.15
10946;BME280;5525;42.648;23.368;2024-03-08T12:26:45;94800.97;;;17.70;51.42
10946;BME280;5525;42.648;23.368;2024-03-08T12:29:23;94802.81;;;17.85;48.63
10946;BME280;5525;42.648;23.368;2024-03-08T12:31:54;94808.66;;;16.27;51.66
10946;BME280;5525;42.648;23.368;2024-03-08T12:34:21;94813.13;;;14.68;56.26
10946;BME280;5525;42.648;23.368;2024-03-08T12:36:49;94798.88;;;13.47;64.90
10946;BME280;5525;42.648;23.368;2024-03-08T12:39:18;94806.94;;;12.66;70.07
10946;BME280;5525;42.648;23.368;2024-03-08T12:41:48;94791.66;;;11.88;73.05
10946;BME280;5525;42.648;23.368;2024-03-08T12:44:15;94799.50;;;11.43;82.47
10946;BME280;5525;42.648;23.368;2024-03-08T12:46:44;94791.25;;;11.98;82.31
10946;BME280;5525;42.648;23.368;2024-03-08T12:49:11;94793.25;;;13.52;71.48
10946;BME280;5525;42.648;23.368;2024-03-08T12:51:39;94789.19;;;13.94;67.84
10946;BME280;5525;42.648;23.368;2024-03-08T12:54:07;94790.97;;;14.02;71.09
10946;BME280;5525;42.648;23.368;2024-03-08T12:56:35;94781.19;;;15.67;62.41
10946;BME280;5525;42.648;23.368;2024-03-08T12:59:03;94785.75;;;16.13;58.34
10946;BME280;5525;42.648;23.368;2024-03-08T13:01:31;94789.28;;;15.04;60.10
10946;BME280;5525;42.648;23.368;2024-03-08T13:04:00;94793.16;;;14.36;61.59
10946;BME280;5525;42.648;23.368;2024-03-08T13:06:27;94791.22;;;13.49;64.52